Terminal Aerodrome Forecast
Issued by NWS Topeka, KS

Home | Current Version | Previous Version | Graphics & Text | Print | Product List | Glossary On
Versions: 1 2 3 4 5 6 7 8 9 10 11 12 13 14 15 16 17 18
000
FTUS43 KTOP 021100
TAFTOP
TAF
KTOP 021120Z 0212/0312 12005KT P6SM SCT090
      TEMPO 0212/0214 5SM BR
     FM021800 12011KT P6SM BKN200
     FM030000 13013KT 6SM -DZ BR OVC020
     FM030300 16014G24KT 4SM -RA BR OVC009=

USA.gov is the U.S. government's official web portal to all federal, state and local government web resources and services.